createdAt,value
2019-04-23T00:01:49.223Z,11.40
2019-04-23T00:04:23.984Z,11.34
2019-04-23T00:09:35.476Z,11.41
2019-04-23T00:12:12.887Z,11.40
2019-04-23T00:14:56.560Z,11.36
2019-04-23T00:17:24.871Z,11.29
2019-04-23T00:19:50.344Z,11.26
2019-04-23T00:22:29.840Z,11.18
2019-04-23T00:25:34.486Z,11.13
2019-04-23T00:27:37.239Z,11.13
2019-04-23T00:30:04.369Z,11.20
2019-04-23T00:35:27.344Z,11.48
2019-04-23T00:37:39.372Z,11.57
2019-04-23T00:40:13.254Z,11.71
2019-04-23T00:42:47.408Z,11.71
2019-04-23T00:45:16.875Z,11.65
2019-04-23T00:47:51.445Z,11.55
2019-04-23T00:50:28.452Z,11.52
2019-04-23T00:52:57.702Z,11.44
2019-04-23T00:55:28.197Z,11.38
2019-04-23T00:58:08.618Z,11.32
2019-04-23T01:05:41.085Z,11.19
2019-04-23T01:13:43.869Z,11.03
2019-04-23T01:16:09.927Z,10.87
2019-04-23T01:18:58.159Z,10.88
2019-04-23T01:21:13.717Z,10.85
2019-04-23T01:24:06.424Z,10.88
2019-04-23T01:27:35.428Z,10.81
2019-04-23T01:29:52.407Z,10.85
2019-04-23T01:32:20.837Z,10.91
2019-04-23T01:35:11.350Z,10.83
2019-04-23T01:37:30.381Z,10.80
2019-04-23T01:40:10.104Z,10.77
2019-04-23T01:45:14.538Z,10.84
2019-04-23T01:50:17.327Z,10.99
2019-04-23T01:52:55.116Z,10.93
2019-04-23T01:55:24.435Z,10.98
2019-04-23T01:57:56.337Z,11.00
2019-04-23T02:00:22.468Z,11.02
2019-04-23T02:02:55.485Z,11.05
2019-04-23T02:05:32.571Z,10.99
2019-04-23T02:07:57.014Z,11.08
2019-04-23T02:13:01.874Z,11.21
2019-04-23T02:15:36.279Z,11.21
2019-04-23T02:18:11.498Z,11.18
2019-04-23T02:20:42.956Z,11.24
2019-04-23T02:23:33.209Z,11.23
2019-04-23T02:26:02.707Z,11.11
2019-04-23T02:28:32.910Z,11.14
2019-04-23T02:33:43.980Z,11.01
2019-04-23T02:36:07.886Z,11.02
2019-04-23T02:41:16.549Z,11.23
2019-04-23T02:43:59.048Z,11.14
2019-04-23T02:46:31.326Z,11.21
2019-04-23T02:48:56.325Z,11.15
2019-04-23T02:51:39.620Z,11.24
2019-04-23T02:54:15.622Z,11.14
2019-04-23T02:56:37.475Z,11.18
2019-04-23T02:59:10.247Z,11.26
2019-04-23T03:01:29.897Z,11.25
2019-04-23T03:09:23.612Z,11.28
2019-04-23T03:11:52.427Z,11.26
2019-04-23T03:19:38.385Z,11.19
2019-04-23T03:22:35.519Z,11.16
2019-04-23T03:25:17.176Z,11.24
2019-04-23T03:27:40.845Z,11.24
2019-04-23T03:30:26.478Z,11.12
2019-04-23T03:35:09.805Z,11.02
2019-04-23T03:38:00.800Z,11.00
2019-04-23T03:40:21.191Z,10.91
2019-04-23T03:43:18.943Z,10.89
2019-04-23T03:45:47.596Z,10.93
2019-04-23T03:48:06.296Z,10.86
2019-04-23T03:50:35.850Z,10.71
2019-04-23T03:53:18.450Z,10.59
2019-04-23T03:55:50.993Z,10.58
2019-04-23T03:58:21.158Z,10.54
2019-04-23T04:03:42.527Z,10.47
2019-04-23T04:06:03.403Z,10.52
2019-04-23T04:08:25.942Z,10.55
2019-04-23T04:11:09.388Z,10.58
2019-04-23T04:13:30.726Z,10.66
2019-04-23T04:16:01.345Z,10.72
2019-04-23T04:23:57.699Z,10.56
2019-04-23T04:26:32.694Z,10.54
2019-04-23T04:28:51.062Z,10.50
2019-04-23T04:31:20.929Z,10.52
2019-04-23T04:34:21.517Z,10.49
2019-04-23T04:41:40.663Z,10.72
2019-04-23T04:44:17.134Z,10.70
2019-04-23T04:46:39.065Z,10.71
2019-04-23T04:51:51.489Z,10.82
2019-04-23T04:56:42.561Z,10.86
2019-04-23T04:59:18.165Z,10.99
2019-04-23T05:04:28.517Z,11.14
2019-04-23T05:12:11.059Z,11.18
2019-04-23T05:14:43.538Z,11.08
2019-04-23T05:17:15.663Z,11.14
2019-04-23T05:24:46.654Z,11.17
2019-04-23T05:27:20.355Z,11.24
2019-04-23T05:30:06.068Z,11.23
2019-04-23T05:32:26.462Z,11.17
2019-04-23T05:34:55.795Z,11.34
2019-04-23T05:37:40.520Z,11.41
2019-04-23T05:40:08.738Z,11.52
2019-04-23T05:42:37.943Z,11.44
2019-04-23T05:45:02.142Z,11.58
2019-04-23T05:47:36.318Z,11.67
2019-04-23T05:50:18.822Z,11.64
2019-04-23T05:52:45.920Z,11.68
2019-04-23T05:55:37.825Z,11.71
2019-04-23T05:57:55.563Z,11.74
2019-04-23T06:05:34.161Z,11.83
2019-04-23T06:08:03.526Z,11.95
2019-04-23T06:10:39.552Z,11.88
2019-04-23T06:13:04.785Z,11.86
2019-04-23T06:15:36.879Z,11.95
2019-04-23T06:18:20.083Z,11.87
2019-04-23T06:20:49.280Z,12.01
2019-04-23T06:23:26.712Z,12.07
2019-04-23T06:28:21.196Z,12.16
2019-04-23T06:31:02.283Z,12.17
2019-04-23T06:33:25.766Z,12.36
2019-04-23T06:36:05.436Z,12.43
2019-04-23T06:41:09.976Z,12.45
2019-04-23T06:43:49.969Z,12.56
2019-04-23T06:46:15.058Z,12.65
2019-04-23T06:48:47.060Z,12.52
2019-04-23T06:51:27.507Z,12.52
2019-04-23T06:53:55.071Z,12.65
2019-04-23T06:56:26.839Z,12.63
2019-04-23T06:59:02.621Z,12.85
2019-04-23T07:01:27.657Z,12.87
2019-04-23T07:04:05.633Z,12.91
2019-04-23T07:06:58.110Z,12.94
2019-04-23T07:14:02.583Z,12.90
2019-04-23T07:16:48.807Z,13.17
2019-04-23T07:21:50.823Z,13.05
2019-04-23T07:24:18.163Z,13.09
2019-04-23T07:26:45.475Z,13.28
2019-04-23T07:29:26.302Z,13.40
2019-04-23T07:34:31.911Z,13.44
2019-04-23T07:40:11.421Z,13.64
2019-04-23T07:42:39.514Z,13.75
2019-04-23T07:45:25.772Z,13.60
2019-04-23T07:48:11.224Z,13.83
2019-04-23T07:50:45.614Z,13.67
2019-04-23T07:55:58.006Z,13.78
2019-04-23T07:58:23.421Z,13.83
2019-04-23T08:00:48.880Z,14.29
2019-04-23T08:05:55.318Z,14.24
2019-04-23T08:08:30.294Z,14.46
2019-04-23T08:11:30.922Z,14.35
2019-04-23T08:13:53.345Z,14.89
2019-04-23T08:16:28.161Z,14.58
2019-04-23T08:21:27.593Z,14.97
2019-04-23T08:27:04.617Z,14.83
2019-04-23T08:29:36.138Z,15.07
2019-04-23T08:32:18.997Z,15.23
2019-04-23T08:37:36.456Z,15.28
2019-04-23T08:39:52.139Z,15.67
2019-04-23T08:48:21.811Z,15.47
2019-04-23T08:50:46.691Z,16.39
2019-04-23T08:58:36.843Z,16.42
2019-04-23T09:01:05.648Z,16.55
2019-04-23T09:03:30.135Z,16.49
2019-04-23T09:06:08.040Z,16.54
2019-04-23T09:08:32.787Z,16.65
2019-04-23T09:11:19.505Z,16.76
2019-04-23T09:16:08.425Z,17.73
2019-04-23T09:18:47.332Z,17.75
2019-04-23T09:24:00.331Z,17.22
2019-04-23T09:26:33.262Z,17.16
2019-04-23T09:29:04.449Z,16.99
2019-04-23T09:34:57.038Z,17.44
2019-04-23T09:37:42.205Z,17.28
2019-04-23T09:40:39.049Z,17.17
2019-04-23T09:43:13.833Z,17.11
2019-04-23T09:46:14.562Z,17.19
2019-04-23T09:48:44.211Z,17.64
2019-04-23T09:51:21.016Z,17.48
2019-04-23T09:53:48.828Z,17.40
2019-04-23T09:56:14.515Z,17.42
2019-04-23T09:58:51.733Z,17.69
2019-04-23T10:03:50.965Z,17.72
2019-04-23T10:06:19.080Z,17.91
2019-04-23T10:08:50.031Z,18.19
2019-04-23T10:11:16.068Z,18.50
2019-04-23T10:13:48.389Z,18.36
2019-04-23T10:16:21.530Z,18.42
2019-04-23T10:18:51.168Z,19.02
2019-04-23T10:21:23.606Z,18.53
2019-04-23T10:23:55.052Z,18.88
2019-04-23T10:26:25.955Z,18.73
2019-04-23T10:29:02.461Z,18.65
2019-04-23T10:31:33.463Z,19.16
2019-04-23T10:34:04.458Z,19.12
2019-04-23T10:36:40.636Z,19.12
2019-04-23T10:39:20.776Z,18.83
2019-04-23T10:41:46.336Z,19.24
2019-04-23T10:44:35.528Z,19.25
2019-04-23T10:47:59.430Z,19.56
2019-04-23T10:50:51.185Z,19.33
2019-04-23T10:53:29.687Z,19.74
2019-04-23T10:56:18.369Z,20.11
2019-04-23T10:58:35.185Z,19.56
2019-04-23T11:01:19.341Z,20.32
2019-04-23T11:03:49.254Z,20.78
2019-04-23T11:06:17.731Z,20.38
2019-04-23T11:08:53.448Z,19.82
2019-04-23T11:11:25.548Z,20.11
2019-04-23T11:14:00.137Z,20.59
2019-04-23T11:19:11.294Z,19.63
2019-04-23T11:24:23.663Z,20.25
2019-04-23T11:26:42.390Z,19.70
2019-04-23T11:29:23.781Z,19.66
2019-04-23T11:34:34.181Z,19.96
2019-04-23T11:39:32.533Z,19.90
2019-04-23T11:47:09.503Z,20.28
2019-04-23T11:49:53.719Z,20.40
2019-04-23T11:50:46.443Z,20.10
2019-04-23T11:52:07.797Z,20.03
2019-04-23T11:54:35.540Z,20.46
2019-04-23T11:59:43.605Z,20.42
2019-04-23T12:02:40.284Z,20.40
2019-04-23T12:05:35.449Z,20.94
2019-04-23T12:14:10.463Z,21.40
2019-04-23T12:16:38.447Z,21.86
2019-04-23T12:19:32.873Z,21.76
2019-04-23T12:21:45.424Z,20.68
2019-04-23T12:26:53.881Z,21.57
2019-04-23T12:29:30.402Z,21.15
2019-04-23T12:32:32.356Z,21.17
2019-04-23T12:34:52.922Z,20.86
2019-04-23T12:37:29.300Z,20.78
2019-04-23T12:40:03.211Z,21.06
2019-04-23T12:45:09.595Z,21.16
2019-04-23T12:47:46.351Z,21.37
2019-04-23T12:50:31.042Z,21.54
2019-04-23T12:57:42.441Z,21.58
2019-04-23T13:00:19.574Z,21.69
2019-04-23T13:02:55.539Z,21.46
2019-04-23T13:05:15.827Z,21.67
2019-04-23T13:07:52.046Z,21.75
2019-04-23T13:10:30.270Z,21.65
2019-04-23T13:15:33.425Z,21.36
2019-04-23T13:18:03.016Z,21.19
2019-04-23T13:20:33.877Z,21.05
2019-04-23T13:23:19.816Z,21.59
2019-04-23T13:28:28.069Z,22.25
2019-04-23T13:38:38.270Z,22.31
2019-04-23T13:43:40.541Z,22.34
2019-04-23T13:46:13.848Z,22.37
2019-04-23T13:48:52.509Z,22.28
2019-04-23T13:51:20.814Z,22.46
2019-04-23T13:53:53.383Z,22.62
2019-04-23T13:56:31.587Z,22.40
2019-04-23T13:58:59.920Z,22.21
2019-04-23T14:01:28.864Z,22.84
2019-04-23T14:04:04.745Z,22.87
2019-04-23T14:06:36.478Z,22.49
2019-04-23T14:09:14.628Z,22.17
2019-04-23T14:11:34.698Z,22.34
2019-04-23T14:14:25.257Z,22.59
2019-04-23T14:19:21.459Z,22.53
2019-04-23T14:22:13.723Z,22.81
2019-04-23T14:24:32.374Z,22.77
2019-04-23T14:26:59.187Z,22.49
2019-04-23T14:29:38.463Z,22.13
2019-04-23T14:32:10.489Z,22.36
2019-04-23T14:34:46.321Z,22.36
2019-04-23T14:37:12.133Z,22.49
2019-04-23T14:42:26.516Z,22.68
2019-04-23T14:45:08.089Z,22.80
2019-04-23T14:50:24.060Z,22.81
2019-04-23T14:52:50.382Z,22.85
2019-04-23T14:55:41.775Z,22.76
2019-04-23T14:57:52.795Z,22.84
2019-04-23T15:00:18.604Z,22.57
2019-04-23T15:02:52.108Z,22.90
2019-04-23T15:05:27.988Z,22.68
2019-04-23T15:07:52.144Z,22.74
2019-04-23T15:13:00.015Z,22.77
2019-04-23T15:15:35.630Z,22.33
2019-04-23T15:18:14.175Z,23.05
2019-04-23T15:21:15.748Z,23.21
2019-04-23T15:23:41.802Z,23.38
2019-04-23T15:26:57.177Z,23.18
2019-04-23T15:28:09.029Z,22.71
2019-04-23T15:31:09.598Z,22.89
2019-04-23T15:33:51.870Z,22.88
2019-04-23T15:41:24.971Z,22.56
2019-04-23T15:43:57.766Z,22.41
2019-04-23T15:46:26.800Z,22.55
2019-04-23T15:49:07.688Z,22.74
2019-04-23T15:54:02.580Z,22.62
2019-04-23T15:56:45.189Z,22.51
2019-04-23T16:03:45.059Z,22.66
2019-04-23T16:06:21.459Z,22.78
2019-04-23T16:17:04.921Z,22.71
2019-04-23T16:19:29.125Z,22.68
2019-04-23T16:22:12.995Z,22.51
2019-04-23T16:24:37.804Z,22.62
2019-04-23T16:27:11.093Z,22.52
2019-04-23T16:30:10.793Z,22.52
2019-04-23T16:32:31.356Z,22.47
2019-04-23T16:35:03.261Z,22.52
2019-04-23T16:37:29.297Z,22.60
2019-04-23T16:40:04.507Z,22.53
2019-04-23T16:42:38.392Z,22.39
2019-04-23T16:47:36.884Z,22.32
2019-04-23T16:50:13.128Z,22.32
2019-04-23T16:52:43.898Z,22.30
2019-04-23T16:55:29.450Z,22.14
2019-04-23T17:02:56.071Z,21.84
2019-04-23T17:05:24.924Z,21.89
2019-04-23T17:08:24.847Z,21.82
2019-04-23T17:10:38.816Z,21.83
2019-04-23T17:13:05.058Z,21.85
2019-04-23T17:15:46.413Z,21.93
2019-04-23T17:18:11.950Z,21.83
2019-04-23T17:20:46.779Z,21.75
2019-04-23T17:23:25.567Z,21.62
2019-04-23T17:25:51.875Z,21.55
2019-04-23T17:28:21.973Z,21.54
2019-04-23T17:31:19.245Z,21.54
2019-04-23T17:33:38.301Z,21.52
2019-04-23T17:36:28.391Z,21.53
2019-04-23T17:42:08.283Z,21.37
2019-04-23T17:47:14.061Z,21.32
2019-04-23T17:49:51.085Z,21.32
2019-04-23T17:52:21.896Z,21.28
2019-04-23T17:57:26.317Z,21.30
2019-04-23T18:00:11.469Z,21.24
2019-04-23T18:02:55.605Z,21.17
2019-04-23T18:05:08.214Z,21.11
2019-04-23T18:07:44.000Z,21.03
2019-04-23T18:10:17.556Z,21.15
2019-04-23T18:15:35.123Z,20.93
2019-04-23T18:17:54.747Z,20.97
2019-04-23T18:20:44.167Z,20.92
2019-04-23T18:23:15.164Z,20.85
2019-04-23T18:26:05.419Z,20.83
2019-04-23T18:28:37.635Z,20.74
2019-04-23T18:36:37.144Z,20.50
2019-04-23T18:39:26.314Z,20.43
2019-04-23T18:41:57.941Z,20.41
2019-04-23T18:44:31.830Z,20.30
2019-04-23T18:47:00.429Z,20.28
2019-04-23T18:49:36.638Z,20.22
2019-04-23T18:51:58.218Z,20.13
2019-04-23T18:54:28.418Z,20.13
2019-04-23T18:57:09.841Z,20.03
2019-04-23T19:00:07.480Z,19.74
2019-04-23T19:02:35.436Z,19.65
2019-04-23T19:05:07.233Z,19.51
2019-04-23T19:10:30.487Z,19.17
2019-04-23T19:13:12.628Z,19.15
2019-04-23T19:15:45.905Z,19.02
2019-04-23T19:18:12.552Z,18.99
2019-04-23T19:23:35.192Z,18.88
2019-04-23T19:25:48.270Z,18.73
2019-04-23T19:31:31.365Z,18.60
2019-04-23T19:41:55.422Z,18.54
2019-04-23T19:44:27.901Z,18.51
2019-04-23T19:49:28.850Z,18.44
2019-04-23T19:51:58.514Z,18.35
2019-04-23T19:54:34.008Z,18.35
2019-04-23T20:02:09.579Z,18.31
2019-04-23T20:14:48.810Z,18.16
2019-04-23T20:19:48.215Z,18.00
2019-04-23T20:25:10.012Z,17.94
2019-04-23T20:27:25.967Z,18.13
2019-04-23T20:30:51.004Z,17.96
2019-04-23T20:33:27.924Z,17.90
2019-04-23T20:35:24.246Z,17.70
2019-04-23T20:43:05.713Z,17.44
2019-04-23T20:45:39.628Z,17.46
2019-04-23T20:48:04.796Z,17.39
2019-04-23T20:50:41.028Z,17.27
2019-04-23T20:53:09.234Z,17.12
2019-04-23T20:56:04.877Z,16.99
2019-04-23T21:03:49.140Z,16.77
2019-04-23T21:06:18.882Z,16.75
2019-04-23T21:09:14.909Z,16.65
2019-04-23T21:11:29.073Z,16.53
2019-04-23T21:14:12.459Z,16.61
2019-04-23T21:16:32.763Z,16.55
2019-04-23T21:18:55.606Z,16.46
2019-04-23T21:21:33.832Z,16.26
2019-04-23T21:24:01.325Z,16.14
2019-04-23T21:26:46.057Z,16.15
2019-04-23T21:29:07.443Z,16.12
2019-04-23T21:32:09.314Z,16.05
2019-04-23T21:34:21.572Z,16.06
2019-04-23T21:36:50.942Z,15.87
2019-04-23T21:39:40.757Z,15.86
2019-04-23T21:42:14.089Z,15.79
2019-04-23T21:44:41.974Z,15.58
2019-04-23T21:47:40.294Z,15.73
2019-04-23T21:50:03.159Z,15.75
2019-04-23T21:52:17.944Z,15.76
2019-04-23T21:54:58.760Z,15.94
2019-04-23T21:57:24.468Z,15.93
2019-04-23T21:59:55.818Z,15.92
2019-04-23T22:02:28.587Z,15.79
2019-04-23T22:05:01.191Z,15.77
2019-04-23T22:07:50.131Z,15.80
2019-04-23T22:10:15.718Z,15.64
2019-04-23T22:12:46.809Z,15.48
2019-04-23T22:15:04.756Z,15.49
2019-04-23T22:17:46.289Z,15.42
2019-04-23T22:20:17.690Z,15.55
2019-04-23T22:22:57.197Z,15.68
2019-04-23T22:25:13.123Z,15.69
2019-04-23T22:27:54.783Z,15.82
2019-04-23T22:30:31.468Z,15.86
2019-04-23T22:33:04.024Z,15.83
2019-04-23T22:35:30.501Z,15.94
2019-04-23T22:38:18.783Z,15.95
2019-04-23T22:40:37.406Z,16.01
2019-04-23T22:43:14.737Z,16.04
2019-04-23T22:45:44.427Z,16.01
2019-04-23T22:48:18.020Z,16.00
2019-04-23T22:50:59.344Z,16.04
2019-04-23T22:55:57.675Z,16.12
2019-04-23T22:58:27.640Z,16.27
2019-04-23T23:03:51.182Z,16.33
2019-04-23T23:06:23.085Z,16.27
2019-04-23T23:08:59.879Z,16.15
2019-04-23T23:11:14.146Z,16.19
2019-04-23T23:14:09.663Z,16.01
2019-04-23T23:16:28.382Z,16.26
2019-04-23T23:19:03.957Z,16.35
2019-04-23T23:21:38.143Z,16.47
2019-04-23T23:26:42.185Z,16.37
2019-04-23T23:29:06.358Z,16.28
2019-04-23T23:31:43.929Z,16.41
2019-04-23T23:39:25.056Z,16.11
2019-04-23T23:44:54.542Z,16.17
2019-04-23T23:47:03.102Z,16.13
2019-04-23T23:49:27.819Z,16.03
2019-04-23T23:51:58.295Z,16.09
2019-04-23T23:54:26.618Z,16.02
